createdAt,value
2018-05-25T16:06:56.419Z,3.67
2018-05-25T16:09:26.636Z,6.40
2018-05-25T16:11:56.134Z,4.12
2018-05-25T16:16:03.084Z,3.55
2018-05-25T16:18:32.556Z,5.75
2018-05-25T16:21:02.618Z,6.70
2018-05-25T16:23:32.526Z,11.07
2018-05-25T16:26:02.837Z,4.65
2018-05-25T16:28:33.004Z,4.12
2018-05-25T16:31:06.950Z,3.12
2018-05-25T16:33:59.270Z,5.70
2018-05-25T16:36:29.897Z,4.62
2018-05-25T16:38:59.326Z,5.65
2018-05-25T16:41:29.561Z,7.60
2018-05-25T16:44:00.021Z,4.20
2018-05-25T16:46:29.497Z,4.47
2018-05-25T16:48:59.005Z,3.40
2018-05-25T16:51:28.668Z,7.10
2018-05-25T16:54:08.771Z,3.92
2018-05-25T16:56:40.249Z,5.70
2018-05-25T16:59:09.781Z,3.33
2018-05-25T17:01:53.142Z,3.85
2018-05-25T17:04:28.337Z,3.47
2018-05-25T17:06:58.607Z,5.67
2018-05-25T17:09:29.971Z,7.53
2018-05-25T17:12:00.776Z,5.83
2018-05-25T17:14:30.288Z,5.23
2018-05-25T17:16:59.901Z,6.07
2018-05-25T17:19:29.504Z,5.53
2018-05-25T17:22:00.464Z,7.37
2018-05-25T17:24:32.058Z,4.77
2018-05-25T17:27:03.071Z,8.03
2018-05-25T17:29:33.933Z,6.40
2018-05-25T17:32:03.738Z,8.10
2018-05-25T17:34:35.643Z,7.77
2018-05-25T17:37:05.408Z,7.37
2018-05-25T17:39:35.953Z,5.93
2018-05-25T17:42:05.455Z,5.47
2018-05-25T17:44:34.963Z,6.17
2018-05-25T17:47:09.384Z,7.40
2018-05-25T17:49:40.059Z,6.60
2018-05-25T17:52:09.683Z,5.70
2018-05-25T17:54:44.704Z,6.73
2018-05-25T17:57:15.713Z,6.17
2018-05-25T17:59:46.349Z,7.13
2018-05-25T18:02:16.676Z,7.23
2018-05-25T18:04:56.728Z,9.83
2018-05-25T18:07:27.897Z,8.73
2018-05-25T18:09:58.868Z,6.33
2018-05-25T18:12:29.980Z,6.83
2018-05-25T18:15:02.062Z,8.33
2018-05-25T18:17:32.542Z,6.73
2018-05-25T18:20:02.824Z,9.43
2018-05-25T18:22:33.184Z,6.50
2018-05-25T18:25:03.793Z,9.77
2018-05-25T18:27:33.518Z,9.27
2018-05-25T18:30:03.119Z,6.90
2018-05-25T18:32:32.782Z,9.10
2018-05-25T18:35:03.175Z,7.30
2018-05-25T18:37:32.676Z,7.63
2018-05-25T18:40:02.616Z,8.47
2018-05-25T18:42:32.282Z,8.67
2018-05-25T18:45:02.577Z,8.00
2018-05-25T18:47:36.533Z,9.33
2018-05-25T18:50:08.186Z,9.73
2018-05-25T18:52:37.782Z,7.77
2018-05-25T18:55:08.144Z,9.50
2018-05-25T18:57:37.730Z,9.70
2018-05-25T19:00:07.405Z,11.70
2018-05-25T19:02:37.688Z,8.63
2018-05-25T19:05:07.249Z,10.30
2018-05-25T19:07:37.550Z,10.67
2018-05-25T19:10:10.150Z,10.77
2018-05-25T19:12:41.530Z,8.70
2018-05-25T19:15:11.721Z,8.67
2018-05-25T19:17:46.077Z,9.07
2018-05-25T19:20:21.290Z,9.13
2018-05-25T19:22:52.132Z,12.17
2018-05-25T19:25:23.524Z,9.57
2018-05-25T19:27:53.607Z,11.23
2018-05-25T19:30:24.792Z,12.13
2018-05-25T19:32:54.462Z,10.30
2018-05-25T19:35:26.937Z,10.03
2018-05-25T19:37:58.175Z,8.90
2018-05-25T19:40:31.021Z,9.77
2018-05-25T19:43:02.280Z,8.53
2018-05-25T19:45:33.260Z,8.53
2018-05-25T19:48:07.199Z,11.13
2018-05-25T19:50:37.406Z,9.53
2018-05-25T19:53:08.276Z,9.50
2018-05-25T19:55:38.970Z,10.63
2018-05-25T19:58:09.849Z,9.80
2018-05-25T20:00:40.634Z,9.40
2018-05-25T20:03:11.738Z,9.43
2018-05-25T20:05:42.452Z,10.13
2018-05-25T20:08:14.421Z,11.40
2018-05-25T20:10:44.539Z,8.67
2018-05-25T20:13:15.989Z,9.60
2018-05-25T20:15:47.906Z,9.70
2018-05-25T20:18:19.097Z,8.63
2018-05-25T20:20:49.709Z,9.07
2018-05-25T20:23:32.757Z,10.97
2018-05-25T20:26:04.371Z,8.90
2018-05-25T20:28:33.970Z,10.40
2018-05-25T20:31:03.685Z,10.30
2018-05-25T20:33:33.702Z,10.80
2018-05-25T20:36:04.070Z,9.53
2018-05-25T20:38:34.221Z,8.83
2018-05-25T20:41:05.059Z,11.13
2018-05-25T20:43:36.370Z,8.67
2018-05-25T20:46:06.347Z,9.60
2018-05-25T20:48:36.508Z,8.90
2018-05-25T20:51:07.373Z,9.67
2018-05-25T20:53:37.630Z,9.70
2018-05-25T20:56:07.249Z,9.30
2018-05-25T20:58:36.863Z,12.43
2018-05-25T21:01:06.678Z,9.80
2018-05-25T21:03:36.387Z,8.77
2018-05-25T21:06:05.992Z,8.60
2018-05-25T21:08:45.057Z,9.23
2018-05-25T21:11:28.212Z,9.40
2018-05-25T21:13:58.881Z,12.37
2018-05-25T21:16:29.022Z,12.07
2018-05-25T21:18:58.543Z,11.70
2018-05-25T21:21:28.770Z,10.70
2018-05-25T21:23:58.817Z,10.57
2018-05-25T21:26:29.289Z,10.90
2018-05-25T21:28:58.790Z,9.93
2018-05-25T21:31:29.532Z,10.27
2018-05-25T21:33:59.177Z,9.47
2018-05-25T21:36:32.260Z,8.90
2018-05-25T21:39:02.940Z,7.90
2018-05-25T21:41:33.831Z,9.03
2018-05-25T21:44:06.132Z,9.13
2018-05-25T21:46:36.552Z,10.73
2018-05-25T21:49:07.170Z,11.37
2018-05-25T21:51:39.536Z,9.90
2018-05-25T21:54:09.301Z,11.60
2018-05-25T21:56:39.126Z,9.07
2018-05-25T21:59:08.684Z,9.37
2018-05-25T22:01:38.708Z,12.77
2018-05-25T22:04:09.180Z,11.67
2018-05-25T22:06:38.862Z,9.63
2018-05-25T22:09:08.823Z,12.47
2018-05-25T22:11:39.399Z,12.63
2018-05-25T22:14:09.666Z,10.40
2018-05-25T22:16:39.330Z,13.67
2018-05-25T22:19:09.216Z,11.37
2018-05-25T22:21:39.681Z,10.13
2018-05-25T22:24:09.354Z,9.60
2018-05-25T22:29:42.610Z,11.93
2018-05-25T22:32:13.070Z,11.57
2018-05-25T22:34:43.894Z,11.13
2018-05-25T22:37:13.704Z,11.27
2018-05-25T22:39:43.627Z,11.80
2018-05-25T22:42:12.681Z,13.03
2018-05-25T22:45:06.011Z,15.77
2018-05-25T22:54:35.779Z,12.97
2018-05-25T22:57:06.052Z,15.17
2018-05-25T22:59:36.965Z,13.03
2018-05-25T23:02:06.484Z,14.00
2018-05-25T23:04:36.154Z,11.67
2018-05-25T23:07:06.593Z,15.07
2018-05-25T23:09:36.645Z,12.80
2018-05-25T23:12:06.381Z,14.13
2018-05-25T23:14:36.062Z,14.50
2018-05-25T23:17:05.647Z,17.60
2018-05-25T23:19:36.460Z,13.60
2018-05-25T23:22:06.145Z,12.73
2018-05-25T23:24:36.644Z,14.30
2018-05-25T23:27:06.271Z,15.03
2018-05-25T23:29:35.739Z,15.03
2018-05-25T23:32:06.431Z,14.23
2018-05-25T23:34:35.965Z,15.17
2018-05-25T23:37:05.596Z,16.40
2018-05-25T23:39:35.168Z,18.57
2018-05-25T23:45:14.031Z,15.43
2018-05-25T23:47:52.455Z,16.30
2018-05-25T23:50:24.371Z,16.33
2018-05-25T23:52:55.175Z,17.97
2018-05-25T23:55:36.285Z,17.47
2018-05-25T23:58:06.044Z,20.97
